createdAt,value
2022-08-20T00:02:16.849Z,82.81
2022-08-20T00:04:45.857Z,82.69
2022-08-20T00:07:15.690Z,80.53
2022-08-20T00:09:45.346Z,81.93
2022-08-20T00:12:17.822Z,83.54
2022-08-20T00:14:46.703Z,83.65
2022-08-20T00:17:15.270Z,81.78
2022-08-20T00:19:43.953Z,81.21
2022-08-20T00:22:13.722Z,82.41
2022-08-20T00:24:42.325Z,84.77
2022-08-20T00:27:11.005Z,84.49
2022-08-20T00:29:39.753Z,81.96
2022-08-20T00:32:08.520Z,84.05
2022-08-20T00:34:37.309Z,84.67
2022-08-20T00:37:07.135Z,85.94
2022-08-20T00:39:36.968Z,89.20
2022-08-20T00:42:06.559Z,87.51
2022-08-20T00:44:35.817Z,90.70
2022-08-20T00:47:05.323Z,93.94
2022-08-20T00:49:34.111Z,91.37
2022-08-20T00:52:22.254Z,92.59
2022-08-20T00:54:58.825Z,87.63
2022-08-20T00:58:00.427Z,85.82
2022-08-20T01:00:46.908Z,87.44
2022-08-20T01:03:20.598Z,87.25
2022-08-20T01:05:52.849Z,84.94
2022-08-20T01:08:26.721Z,83.40
2022-08-20T01:11:17.415Z,84.43
2022-08-20T01:13:47.183Z,86.03
2022-08-20T01:16:30.350Z,85.67
2022-08-20T01:19:01.167Z,85.28
2022-08-20T01:21:34.112Z,84.57
2022-08-20T01:24:28.522Z,83.70
2022-08-20T01:26:58.015Z,84.00
2022-08-20T01:29:38.978Z,84.23
2022-08-20T01:32:08.161Z,83.97
2022-08-20T01:34:36.693Z,85.11
2022-08-20T01:37:05.559Z,84.77
2022-08-20T01:39:37.381Z,84.59
2022-08-20T01:42:38.685Z,84.88
2022-08-20T01:45:30.846Z,85.21
2022-08-20T01:47:59.945Z,85.54
2022-08-20T01:50:33.646Z,85.04
2022-08-20T01:53:25.164Z,85.44
2022-08-20T01:55:53.869Z,86.86
2022-08-20T01:58:23.386Z,85.77
2022-08-20T02:00:52.047Z,85.18
2022-08-20T02:03:20.650Z,85.54
2022-08-20T02:05:49.382Z,84.95
2022-08-20T02:08:18.101Z,84.92
2022-08-20T02:10:47.601Z,86.40
2022-08-20T02:13:16.855Z,85.57
2022-08-20T02:15:45.624Z,86.48
2022-08-20T02:18:17.010Z,86.10
2022-08-20T02:20:46.281Z,86.30
2022-08-20T02:23:16.409Z,87.56
2022-08-20T02:25:48.302Z,88.70
2022-08-20T02:28:20.707Z,88.71
2022-08-20T02:30:55.473Z,87.93
2022-08-20T02:33:24.938Z,87.53
2022-08-20T02:35:56.990Z,87.33
2022-08-20T02:38:26.045Z,88.36
2022-08-20T02:40:55.656Z,89.02
2022-08-20T02:43:24.618Z,88.62
2022-08-20T02:45:53.363Z,89.85
2022-08-20T02:48:23.294Z,89.73
2022-08-20T02:51:02.842Z,90.43
2022-08-20T02:53:38.213Z,90.75
2022-08-20T02:56:08.897Z,90.47
2022-08-20T02:58:39.571Z,92.51
2022-08-20T03:01:15.565Z,92.28
2022-08-20T03:03:44.652Z,91.47
2022-08-20T03:06:14.584Z,90.41
2022-08-20T03:08:43.788Z,89.87
2022-08-20T03:11:13.590Z,88.55
2022-08-20T03:13:42.283Z,86.27
2022-08-20T03:16:12.390Z,84.73
2022-08-20T03:18:46.791Z,83.14
2022-08-20T03:21:15.985Z,83.88
2022-08-20T03:23:44.785Z,85.21
2022-08-20T03:26:15.080Z,84.24
2022-08-20T03:28:44.510Z,83.40
2022-08-20T03:31:15.429Z,83.54
2022-08-20T03:33:52.788Z,82.94
2022-08-20T03:36:26.682Z,81.86
2022-08-20T03:39:04.681Z,81.80
2022-08-20T03:41:33.212Z,82.75
2022-08-20T03:44:01.665Z,81.89
2022-08-20T03:46:30.126Z,81.78
2022-08-20T03:49:00.618Z,82.52
2022-08-20T03:51:53.576Z,83.10
2022-08-20T03:54:22.522Z,83.68
2022-08-20T03:56:50.963Z,85.09
2022-08-20T03:59:19.615Z,84.10
2022-08-20T04:01:48.263Z,84.64
2022-08-20T04:04:16.791Z,83.70
2022-08-20T04:06:47.166Z,83.47
2022-08-20T04:09:16.343Z,83.36
2022-08-20T04:11:45.234Z,83.20
2022-08-20T04:14:18.454Z,83.46
2022-08-20T04:16:49.050Z,83.03
2022-08-20T04:19:17.921Z,84.21
2022-08-20T04:21:48.618Z,83.73
2022-08-20T04:24:22.592Z,83.59
2022-08-20T04:27:05.601Z,82.88
2022-08-20T04:29:36.690Z,83.03
2022-08-20T04:32:06.824Z,84.99
2022-08-20T04:34:37.126Z,86.26
2022-08-20T04:37:16.537Z,85.09
2022-08-20T04:39:45.737Z,83.72
2022-08-20T04:42:14.227Z,83.11
2022-08-20T04:44:42.719Z,81.72
2022-08-20T04:47:11.268Z,81.81
2022-08-20T04:49:40.271Z,81.50
2022-08-20T04:52:08.902Z,81.68
2022-08-20T04:54:37.462Z,81.13
2022-08-20T04:57:06.142Z,81.76
2022-08-20T04:59:34.723Z,81.05
2022-08-20T05:02:03.512Z,80.90
2022-08-20T05:04:31.943Z,82.00
2022-08-20T05:07:00.572Z,82.29
2022-08-20T05:09:29.247Z,82.54
2022-08-20T05:12:18.256Z,82.42
2022-08-20T05:14:47.341Z,81.55
2022-08-20T05:17:18.412Z,81.46
2022-08-20T05:19:47.664Z,82.21
2022-08-20T05:22:18.110Z,82.62
2022-08-20T05:24:46.629Z,81.35
2022-08-20T05:27:24.530Z,82.10
2022-08-20T05:30:08.901Z,80.88
2022-08-20T05:32:44.397Z,81.70
2022-08-20T05:35:13.545Z,80.68
2022-08-20T05:37:42.133Z,79.64
2022-08-20T05:40:16.484Z,79.63
2022-08-20T05:42:45.538Z,78.78
2022-08-20T05:45:14.201Z,78.15
2022-08-20T05:47:43.127Z,77.80
2022-08-20T05:50:23.140Z,75.63
2022-08-20T05:52:52.553Z,71.77
2022-08-20T05:55:24.453Z,73.77
2022-08-20T05:58:02.371Z,73.91
2022-08-20T06:00:31.621Z,74.02
2022-08-20T06:03:19.047Z,73.39
2022-08-20T06:05:47.553Z,72.27
2022-08-20T06:08:16.995Z,70.92
2022-08-20T06:10:46.046Z,71.43
2022-08-20T06:13:14.579Z,71.70
2022-08-20T06:15:43.352Z,71.62
2022-08-20T06:18:27.485Z,71.56
2022-08-20T06:20:57.918Z,71.70
2022-08-20T06:23:27.994Z,71.75
2022-08-20T06:26:16.595Z,71.09
2022-08-20T06:29:07.436Z,70.22
2022-08-20T06:31:39.956Z,69.89
2022-08-20T06:34:08.468Z,70.93
2022-08-20T06:36:37.005Z,69.50
2022-08-20T06:39:05.429Z,67.19
2022-08-20T06:41:36.036Z,65.27
2022-08-20T06:44:07.657Z,66.20
2022-08-20T06:46:38.047Z,67.96
2022-08-20T06:49:08.777Z,66.72
2022-08-20T06:51:38.563Z,54.53
2022-08-20T06:54:11.005Z,46.21
2022-08-20T06:56:39.507Z,44.73
2022-08-20T06:59:07.890Z,51.07
2022-08-20T07:01:36.356Z,55.79
2022-08-20T07:04:05.709Z,55.03
2022-08-20T07:06:34.247Z,54.33
2022-08-20T07:09:02.783Z,60.38
2022-08-20T07:11:31.252Z,61.93
2022-08-20T07:13:59.658Z,61.93
2022-08-20T07:16:28.957Z,61.20
2022-08-20T07:18:58.387Z,60.39
2022-08-20T07:21:26.929Z,59.59
2022-08-20T07:23:55.409Z,58.90
2022-08-20T07:26:24.659Z,58.33
2022-08-20T07:28:53.558Z,58.74
2022-08-20T07:31:42.548Z,58.75
2022-08-20T07:34:12.546Z,60.24
2022-08-20T07:36:43.611Z,59.47
2022-08-20T07:39:12.036Z,59.30
2022-08-20T07:41:40.438Z,59.05
2022-08-20T07:44:09.218Z,59.70
2022-08-20T07:46:38.685Z,60.14
2022-08-20T07:49:09.991Z,59.25
2022-08-20T07:51:38.472Z,60.63
2022-08-20T07:54:07.310Z,60.83
2022-08-20T07:56:36.779Z,64.61
2022-08-20T07:59:06.395Z,71.09
2022-08-20T08:01:35.331Z,79.25
2022-08-20T08:04:04.689Z,86.36
2022-08-20T08:06:33.433Z,92.38
2022-08-20T08:09:08.770Z,95.65
2022-08-20T08:11:47.241Z,97.00
2022-08-20T08:14:23.743Z,99.86
2022-08-20T08:16:57.506Z,100.00
2022-08-20T08:19:34.420Z,99.77
2022-08-20T08:22:03.762Z,98.64
2022-08-20T08:24:32.412Z,100.00
2022-08-20T08:27:01.013Z,100.00
2022-08-20T08:29:29.742Z,100.00
2022-08-20T08:32:07.619Z,100.00
2022-08-20T08:34:38.485Z,100.00
2022-08-20T08:37:07.135Z,100.00
2022-08-20T08:39:35.675Z,100.00
2022-08-20T08:42:46.131Z,100.00
2022-08-20T08:45:17.463Z,100.00
2022-08-20T08:47:46.697Z,100.00
2022-08-20T08:50:49.915Z,100.00
2022-08-20T08:53:32.450Z,100.00
2022-08-20T08:56:01.789Z,100.00
2022-08-20T08:58:31.864Z,100.00
2022-08-20T09:01:05.705Z,100.00
2022-08-20T09:03:40.274Z,100.00
2022-08-20T09:06:12.243Z,100.00
2022-08-20T09:09:01.142Z,100.00
2022-08-20T09:11:31.598Z,100.00
2022-08-20T09:14:00.189Z,100.00
2022-08-20T09:16:45.648Z,100.00
2022-08-20T09:19:18.089Z,100.00
2022-08-20T09:21:45.832Z,100.00
2022-08-20T09:24:13.638Z,100.00
2022-08-20T09:26:41.508Z,100.00
2022-08-20T09:29:11.285Z,100.00
2022-08-20T09:31:40.010Z,100.00
2022-08-20T09:34:09.074Z,100.00
2022-08-20T09:36:40.127Z,100.00
2022-08-20T09:39:10.121Z,100.00
2022-08-20T09:41:38.704Z,100.00
2022-08-20T09:44:07.270Z,100.00
2022-08-20T09:46:34.976Z,100.00
2022-08-20T09:49:03.643Z,100.00
2022-08-20T09:51:33.771Z,100.00
2022-08-20T09:54:03.764Z,100.00
2022-08-20T09:56:36.343Z,100.00
2022-08-20T09:59:05.506Z,100.00
2022-08-20T10:01:34.190Z,100.00
2022-08-20T10:04:04.203Z,100.00
2022-08-20T10:06:37.610Z,100.00
2022-08-20T10:09:07.095Z,100.00
2022-08-20T10:11:37.058Z,100.00
2022-08-20T10:14:05.923Z,100.00
2022-08-20T10:16:34.432Z,100.00
2022-08-20T10:19:05.284Z,100.00
2022-08-20T10:21:38.589Z,100.00
2022-08-20T10:24:09.426Z,100.00
2022-08-20T10:26:39.391Z,100.00
2022-08-20T10:29:07.806Z,100.00
2022-08-20T10:31:36.361Z,100.00
2022-08-20T10:34:06.017Z,100.00
2022-08-20T10:36:34.792Z,100.00
2022-08-20T10:39:12.304Z,100.00
2022-08-20T10:41:41.151Z,100.00
2022-08-20T10:44:09.760Z,100.00
2022-08-20T10:46:38.261Z,100.00
2022-08-20T10:49:06.776Z,100.00
2022-08-20T10:51:35.416Z,100.00
2022-08-20T10:54:06.335Z,100.00
2022-08-20T10:56:41.538Z,100.00
2022-08-20T10:59:10.341Z,100.00
2022-08-20T11:01:38.736Z,100.00
2022-08-20T11:04:07.351Z,100.00
2022-08-20T11:06:35.878Z,100.00
2022-08-20T11:09:04.602Z,100.00
2022-08-20T11:11:37.793Z,100.00
2022-08-20T11:14:06.562Z,100.00
2022-08-20T11:16:35.118Z,100.00
2022-08-20T11:19:03.608Z,100.00
2022-08-20T11:21:33.086Z,100.00
2022-08-20T11:24:03.253Z,100.00
2022-08-20T11:26:31.801Z,100.00
2022-08-20T11:29:00.238Z,100.00
2022-08-20T11:31:28.762Z,100.00
2022-08-20T11:33:57.217Z,100.00
2022-08-20T11:36:26.634Z,100.00
2022-08-20T11:38:55.090Z,100.00
2022-08-20T11:41:24.105Z,100.00
2022-08-20T11:44:17.378Z,100.00
2022-08-20T11:46:42.191Z,100.00
2022-08-20T11:49:10.878Z,100.00
2022-08-20T11:51:50.070Z,100.00
2022-08-20T11:54:18.880Z,100.00
2022-08-20T11:56:48.477Z,100.00
2022-08-20T11:59:18.462Z,100.00
2022-08-20T12:02:03.065Z,100.00
2022-08-20T12:04:33.549Z,100.00
2022-08-20T12:07:18.739Z,100.00
2022-08-20T12:09:50.949Z,100.00
2022-08-20T12:12:24.290Z,100.00
2022-08-20T12:14:56.853Z,100.00
2022-08-20T12:17:30.274Z,100.00
2022-08-20T12:20:07.261Z,100.00
2022-08-20T12:22:36.075Z,100.00
2022-08-20T12:25:07.685Z,100.00
2022-08-20T12:27:37.965Z,100.00
2022-08-20T12:30:20.000Z,100.00
2022-08-20T12:32:49.127Z,100.00
2022-08-20T12:35:20.183Z,100.00
2022-08-20T12:37:50.273Z,100.00
2022-08-20T12:40:32.271Z,100.00
2022-08-20T12:43:03.893Z,100.00
2022-08-20T12:45:34.530Z,100.00
2022-08-20T12:48:12.433Z,100.00
2022-08-20T12:50:45.787Z,100.00
2022-08-20T12:53:14.414Z,100.00
2022-08-20T12:55:42.968Z,100.00
2022-08-20T12:58:12.329Z,100.00
2022-08-20T13:00:47.310Z,100.00
2022-08-20T13:03:21.000Z,100.00
2022-08-20T13:05:50.789Z,100.00
2022-08-20T13:08:19.642Z,100.00
2022-08-20T13:10:48.623Z,100.00
2022-08-20T13:13:20.487Z,100.00
2022-08-20T13:15:51.693Z,100.00
2022-08-20T13:18:21.302Z,100.00
2022-08-20T13:20:50.106Z,100.00
2022-08-20T13:23:18.595Z,100.00
2022-08-20T13:25:47.411Z,100.00
2022-08-20T13:28:15.887Z,100.00
2022-08-20T13:30:44.589Z,100.00
2022-08-20T13:33:13.224Z,100.00
2022-08-20T13:35:41.862Z,100.00
2022-08-20T13:38:10.407Z,100.00
2022-08-20T13:40:38.990Z,100.00
2022-08-20T13:43:07.817Z,100.00
2022-08-20T13:45:41.895Z,100.00
2022-08-20T13:48:15.289Z,100.00
2022-08-20T13:50:47.184Z,100.00
2022-08-20T13:53:16.836Z,100.00
2022-08-20T13:55:46.264Z,100.00
2022-08-20T13:58:15.075Z,100.00
2022-08-20T14:00:45.220Z,100.00
2022-08-20T14:03:14.455Z,100.00
2022-08-20T14:05:50.076Z,100.00
2022-08-20T14:08:23.936Z,100.00
2022-08-20T14:10:52.725Z,100.00
2022-08-20T14:13:26.227Z,100.00
2022-08-20T14:15:56.656Z,100.00
2022-08-20T14:18:25.391Z,100.00
2022-08-20T14:20:53.994Z,100.00
2022-08-20T14:23:22.872Z,100.00
2022-08-20T14:25:51.398Z,100.00
2022-08-20T14:28:24.271Z,100.00
2022-08-20T14:30:53.797Z,100.00
2022-08-20T14:33:24.508Z,100.00
2022-08-20T14:35:53.510Z,100.00
2022-08-20T14:38:23.224Z,100.00
2022-08-20T14:40:51.780Z,100.00
2022-08-20T14:43:22.262Z,100.00
2022-08-20T14:45:50.768Z,100.00
2022-08-20T14:48:19.353Z,100.00
2022-08-20T14:50:47.939Z,100.00
2022-08-20T14:53:16.354Z,100.00
2022-08-20T14:55:44.947Z,100.00
2022-08-20T14:58:15.404Z,100.00
2022-08-20T15:00:45.001Z,100.00
2022-08-20T15:03:13.923Z,100.00
2022-08-20T15:05:45.123Z,100.00
2022-08-20T15:08:13.689Z,100.00
2022-08-20T15:10:43.045Z,100.00
2022-08-20T15:13:11.771Z,100.00
2022-08-20T15:15:41.051Z,100.00
2022-08-20T15:18:10.232Z,100.00
2022-08-20T15:20:39.225Z,100.00
2022-08-20T15:23:08.307Z,100.00
2022-08-20T15:25:38.174Z,100.00
2022-08-20T15:28:09.994Z,100.00
2022-08-20T15:30:42.406Z,100.00
2022-08-20T15:33:11.888Z,100.00
2022-08-20T15:35:40.736Z,100.00
2022-08-20T15:38:09.470Z,100.00
2022-08-20T15:40:38.289Z,100.00
2022-08-20T15:43:07.198Z,100.00
2022-08-20T15:45:38.166Z,100.00
2022-08-20T15:48:19.819Z,100.00
2022-08-20T15:50:48.306Z,100.00
2022-08-20T15:53:45.330Z,100.00
2022-08-20T15:57:15.458Z,100.00
2022-08-20T16:00:26.344Z,100.00
2022-08-20T16:04:28.886Z,100.00
2022-08-20T16:07:13.815Z,100.00
2022-08-20T16:10:39.069Z,100.00
2022-08-20T16:13:29.386Z,100.00
2022-08-20T16:16:02.402Z,100.00
2022-08-20T16:18:37.143Z,100.00
2022-08-20T16:21:17.360Z,100.00
2022-08-20T16:23:46.382Z,100.00
2022-08-20T16:27:05.142Z,100.00
2022-08-20T16:30:03.234Z,100.00
2022-08-20T16:32:41.480Z,100.00
2022-08-20T16:35:32.052Z,100.00
2022-08-20T16:38:11.285Z,100.00
2022-08-20T16:41:10.717Z,100.00
2022-08-20T16:43:55.142Z,100.00
2022-08-20T16:46:38.050Z,100.00
2022-08-20T16:49:14.554Z,100.00
2022-08-20T16:51:52.665Z,100.00
2022-08-20T16:54:28.471Z,100.00
2022-08-20T16:57:06.657Z,100.00
2022-08-20T17:00:16.195Z,100.00
2022-08-20T17:03:02.091Z,100.00
2022-08-20T17:05:54.803Z,100.00
2022-08-20T17:08:36.875Z,100.00
2022-08-20T17:11:25.074Z,100.00
2022-08-20T17:14:21.614Z,100.00
2022-08-20T17:16:53.561Z,100.00
2022-08-20T17:19:34.391Z,100.00
2022-08-20T17:22:18.850Z,100.00
2022-08-20T17:24:48.698Z,100.00
2022-08-20T17:27:39.873Z,100.00
2022-08-20T17:30:35.640Z,100.00
2022-08-20T17:33:19.219Z,100.00
2022-08-20T17:36:02.702Z,100.00
2022-08-20T17:38:52.236Z,100.00
2022-08-20T17:41:33.410Z,100.00
2022-08-20T17:44:06.718Z,100.00
2022-08-20T17:46:45.943Z,100.00
2022-08-20T17:49:27.279Z,100.00
2022-08-20T17:51:56.396Z,100.00
2022-08-20T17:54:41.025Z,100.00
2022-08-20T17:57:18.696Z,100.00
2022-08-20T18:00:00.037Z,100.00
2022-08-20T18:02:32.244Z,100.00
2022-08-20T18:05:01.236Z,100.00
2022-08-20T18:08:08.676Z,100.00
2022-08-20T18:11:01.616Z,100.00
2022-08-20T18:13:48.395Z,100.00
2022-08-20T18:16:54.977Z,100.00
2022-08-20T18:20:10.354Z,100.00
2022-08-20T18:23:28.782Z,100.00
2022-08-20T18:26:57.447Z,100.00
2022-08-20T18:29:36.331Z,100.00
2022-08-20T18:32:30.496Z,100.00
2022-08-20T18:35:24.062Z,100.00
2022-08-20T18:37:52.826Z,100.00
2022-08-20T18:40:33.449Z,100.00
2022-08-20T18:43:16.815Z,100.00
2022-08-20T18:45:45.382Z,100.00
2022-08-20T18:48:24.657Z,100.00
2022-08-20T18:50:57.520Z,100.00
2022-08-20T18:53:35.824Z,100.00
2022-08-20T18:56:13.657Z,100.00
2022-08-20T18:59:21.993Z,100.00
2022-08-20T19:01:51.207Z,100.00
2022-08-20T19:04:32.364Z,100.00
2022-08-20T19:07:09.400Z,100.00
2022-08-20T19:09:59.800Z,100.00
2022-08-20T19:13:19.401Z,100.00
2022-08-20T19:16:01.826Z,100.00
2022-08-20T19:18:55.370Z,100.00
2022-08-20T19:21:42.442Z,100.00
2022-08-20T19:24:24.022Z,100.00
2022-08-20T19:27:00.791Z,100.00
2022-08-20T19:29:49.446Z,100.00
2022-08-20T19:32:28.221Z,100.00
2022-08-20T19:35:05.316Z,100.00
2022-08-20T19:37:51.000Z,100.00
2022-08-20T19:40:39.009Z,100.00
2022-08-20T19:43:17.651Z,100.00
2022-08-20T19:45:54.611Z,100.00
2022-08-20T19:49:24.841Z,100.00
2022-08-20T19:52:43.518Z,100.00
2022-08-20T19:56:06.595Z,100.00
2022-08-20T19:58:36.446Z,100.00
2022-08-20T20:01:19.035Z,100.00
2022-08-20T20:04:06.398Z,100.00
2022-08-20T20:06:45.583Z,100.00
2022-08-20T20:09:29.106Z,100.00
2022-08-20T20:12:05.194Z,100.00
2022-08-20T20:14:38.353Z,100.00
2022-08-20T20:17:22.497Z,100.00
2022-08-20T20:20:26.626Z,100.00
2022-08-20T20:23:05.836Z,100.00
2022-08-20T20:25:36.371Z,100.00
2022-08-20T20:28:31.077Z,100.00
2022-08-20T20:31:32.955Z,100.00
2022-08-20T20:34:13.817Z,100.00
2022-08-20T20:36:47.254Z,100.00
2022-08-20T20:39:45.849Z,100.00
2022-08-20T20:42:29.369Z,100.00
2022-08-20T20:44:57.992Z,100.00
2022-08-20T20:47:33.497Z,100.00
2022-08-20T20:50:11.252Z,100.00
2022-08-20T20:52:54.646Z,100.00
2022-08-20T20:55:32.449Z,100.00
2022-08-20T20:58:02.748Z,100.00
2022-08-20T21:00:34.953Z,100.00
2022-08-20T21:03:03.873Z,100.00
2022-08-20T21:05:33.989Z,100.00
2022-08-20T21:08:08.295Z,100.00
2022-08-20T21:10:41.663Z,100.00
2022-08-20T21:13:11.853Z,100.00
2022-08-20T21:15:41.113Z,100.00
2022-08-20T21:18:10.868Z,100.00
2022-08-20T21:20:39.611Z,100.00
2022-08-20T21:23:08.647Z,100.00
2022-08-20T21:25:38.177Z,100.00
2022-08-20T21:28:08.868Z,100.00
2022-08-20T21:30:38.366Z,100.00
2022-08-20T21:33:06.990Z,100.00
2022-08-20T21:35:35.579Z,100.00
2022-08-20T21:38:05.024Z,100.00
2022-08-20T21:40:34.169Z,100.00
2022-08-20T21:43:06.630Z,100.00
2022-08-20T21:45:36.325Z,100.00
2022-08-20T21:48:05.676Z,100.00
2022-08-20T21:50:37.252Z,100.00
2022-08-20T21:53:12.582Z,100.00
2022-08-20T21:55:41.918Z,100.00
2022-08-20T21:58:10.757Z,100.00
2022-08-20T22:00:54.075Z,100.00
2022-08-20T22:03:31.336Z,100.00
2022-08-20T22:06:04.508Z,100.00
2022-08-20T22:08:33.912Z,100.00
2022-08-20T22:11:05.421Z,100.00
2022-08-20T22:13:35.229Z,100.00
2022-08-20T22:16:10.822Z,100.00
2022-08-20T22:18:40.203Z,100.00
2022-08-20T22:21:17.911Z,100.00
2022-08-20T22:23:47.435Z,100.00
2022-08-20T22:26:20.686Z,100.00
2022-08-20T22:28:51.234Z,100.00
2022-08-20T22:31:31.130Z,100.00
2022-08-20T22:34:04.025Z,100.00
2022-08-20T22:36:34.343Z,100.00
2022-08-20T22:39:03.954Z,100.00
2022-08-20T22:41:32.747Z,100.00
2022-08-20T22:44:01.790Z,100.00
2022-08-20T22:46:37.922Z,100.00
2022-08-20T22:49:12.731Z,100.00
2022-08-20T22:51:44.039Z,100.00
2022-08-20T22:54:21.806Z,100.00
2022-08-20T22:56:52.026Z,100.00
2022-08-20T22:59:23.497Z,100.00
2022-08-20T23:01:53.662Z,100.00
2022-08-20T23:04:34.073Z,100.00
2022-08-20T23:07:05.143Z,100.00
2022-08-20T23:09:33.924Z,100.00
2022-08-20T23:12:03.159Z,100.00
2022-08-20T23:14:33.448Z,100.00
2022-08-20T23:17:14.023Z,100.00
2022-08-20T23:19:43.771Z,100.00
2022-08-20T23:22:13.805Z,100.00
2022-08-20T23:24:43.145Z,100.00
2022-08-20T23:27:18.686Z,100.00
2022-08-20T23:29:48.555Z,100.00
2022-08-20T23:32:17.742Z,100.00
2022-08-20T23:34:47.308Z,100.00
2022-08-20T23:37:21.540Z,100.00
2022-08-20T23:39:50.222Z,100.00
2022-08-20T23:42:19.425Z,100.00
2022-08-20T23:44:48.070Z,100.00
2022-08-20T23:47:22.999Z,100.00
2022-08-20T23:49:51.912Z,100.00
2022-08-20T23:52:20.610Z,100.00
2022-08-20T23:54:49.360Z,100.00
2022-08-20T23:57:21.004Z,100.00
2022-08-20T23:59:51.352Z,100.00
